sensor_id;sensor_type;location;lat;lon;timestamp;P1;durP1;ratioP1;P2;durP2;ratioP2
71104;SDS011;58760;48.716;8.962;2024-03-17T00:01:17;8.52;;;4.97;;
71104;SDS011;58760;48.716;8.962;2024-03-17T00:04:02;15.90;;;6.18;;
71104;SDS011;58760;48.716;8.962;2024-03-17T00:09:06;10.18;;;5.10;;
71104;SDS011;58760;48.716;8.962;2024-03-17T00:11:34;9.70;;;5.10;;
71104;SDS011;58760;48.716;8.962;2024-03-17T00:14:02;8.57;;;4.72;;
71104;SDS011;58760;48.716;8.962;2024-03-17T00:16:28;12.68;;;5.25;;
71104;SDS011;58760;48.716;8.962;2024-03-17T00:18:55;12.13;;;5.32;;
71104;SDS011;58760;48.716;8.962;2024-03-17T00:21:25;9.77;;;5.60;;
71104;SDS011;58760;48.716;8.962;2024-03-17T00:26:17;10.43;;;5.47;;
71104;SDS011;58760;48.716;8.962;2024-03-17T00:28:46;10.13;;;5.07;;
71104;SDS011;58760;48.716;8.962;2024-03-17T00:31:15;9.15;;;5.25;;
71104;SDS011;58760;48.716;8.962;2024-03-17T00:33:45;11.48;;;5.53;;
71104;SDS011;58760;48.716;8.962;2024-03-17T00:36:11;9.30;;;5.38;;
71104;SDS011;58760;48.716;8.962;2024-03-17T00:38:37;12.25;;;5.85;;
71104;SDS011;58760;48.716;8.962;2024-03-17T00:41:08;9.63;;;5.50;;
71104;SDS011;58760;48.716;8.962;2024-03-17T00:43:34;8.57;;;5.00;;
71104;SDS011;58760;48.716;8.962;2024-03-17T00:46:03;11.23;;;5.43;;
71104;SDS011;58760;48.716;8.962;2024-03-17T00:48:29;10.20;;;5.75;;
71104;SDS011;58760;48.716;8.962;2024-03-17T00:50:57;10.15;;;5.55;;
71104;SDS011;58760;48.716;8.962;2024-03-17T00:53:25;11.60;;;5.68;;
71104;SDS011;58760;48.716;8.962;2024-03-17T00:55:52;10.32;;;5.63;;
71104;SDS011;58760;48.716;8.962;2024-03-17T00:58:21;9.60;;;5.72;;
71104;SDS011;58760;48.716;8.962;2024-03-17T01:00:47;10.65;;;5.95;;
71104;SDS011;58760;48.716;8.962;2024-03-17T01:03:14;14.73;;;6.03;;
71104;SDS011;58760;48.716;8.962;2024-03-17T01:05:41;10.18;;;5.63;;
71104;SDS011;58760;48.716;8.962;2024-03-17T01:08:09;12.52;;;5.53;;
71104;SDS011;58760;48.716;8.962;2024-03-17T01:10:39;10.15;;;5.38;;
71104;SDS011;58760;48.716;8.962;2024-03-17T01:13:06;10.43;;;5.55;;
71104;SDS011;58760;48.716;8.962;2024-03-17T01:15:33;9.20;;;5.00;;
71104;SDS011;58760;48.716;8.962;2024-03-17T01:18:01;10.45;;;5.53;;
71104;SDS011;58760;48.716;8.962;2024-03-17T01:20:29;10.98;;;5.32;;
71104;SDS011;58760;48.716;8.962;2024-03-17T01:23:01;9.82;;;5.32;;
71104;SDS011;58760;48.716;8.962;2024-03-17T01:25:26;9.15;;;5.03;;
71104;SDS011;58760;48.716;8.962;2024-03-17T01:27:53;9.85;;;5.55;;
71104;SDS011;58760;48.716;8.962;2024-03-17T01:30:19;11.40;;;5.53;;
71104;SDS011;58760;48.716;8.962;2024-03-17T01:32:45;8.90;;;5.20;;
71104;SDS011;58760;48.716;8.962;2024-03-17T01:35:11;9.00;;;4.90;;
71104;SDS011;58760;48.716;8.962;2024-03-17T01:37:38;10.00;;;5.65;;
71104;SDS011;58760;48.716;8.962;2024-03-17T01:40:05;9.18;;;5.28;;
71104;SDS011;58760;48.716;8.962;2024-03-17T01:42:34;8.93;;;5.15;;
71104;SDS011;58760;48.716;8.962;2024-03-17T01:47:27;9.25;;;5.53;;
71104;SDS011;58760;48.716;8.962;2024-03-17T01:49:54;9.52;;;5.70;;
71104;SDS011;58760;48.716;8.962;2024-03-17T01:52:21;9.68;;;5.57;;
71104;SDS011;58760;48.716;8.962;2024-03-17T01:54:48;10.15;;;5.18;;
71104;SDS011;58760;48.716;8.962;2024-03-17T01:59:41;9.05;;;4.80;;
71104;SDS011;58760;48.716;8.962;2024-03-17T02:02:06;9.32;;;4.93;;
71104;SDS011;58760;48.716;8.962;2024-03-17T02:04:32;9.50;;;5.30;;
71104;SDS011;58760;48.716;8.962;2024-03-17T02:06:59;8.98;;;5.13;;
71104;SDS011;58760;48.716;8.962;2024-03-17T02:09:24;10.43;;;5.13;;
71104;SDS011;58760;48.716;8.962;2024-03-17T02:11:51;8.52;;;5.10;;
71104;SDS011;58760;48.716;8.962;2024-03-17T02:14:17;9.88;;;4.80;;
71104;SDS011;58760;48.716;8.962;2024-03-17T02:16:43;10.18;;;5.40;;
71104;SDS011;58760;48.716;8.962;2024-03-17T02:19:10;8.50;;;4.90;;
71104;SDS011;58760;48.716;8.962;2024-03-17T02:21:35;8.80;;;4.78;;
71104;SDS011;58760;48.716;8.962;2024-03-17T02:24:03;8.60;;;4.72;;
71104;SDS011;58760;48.716;8.962;2024-03-17T02:26:33;8.77;;;4.88;;
71104;SDS011;58760;48.716;8.962;2024-03-17T02:29:01;9.65;;;4.68;;
71104;SDS011;58760;48.716;8.962;2024-03-17T02:31:28;9.90;;;5.28;;
71104;SDS011;58760;48.716;8.962;2024-03-17T02:33:58;9.27;;;5.00;;
71104;SDS011;58760;48.716;8.962;2024-03-17T02:36:24;9.35;;;4.85;;
71104;SDS011;58760;48.716;8.962;2024-03-17T02:38:50;8.82;;;4.57;;
71104;SDS011;58760;48.716;8.962;2024-03-17T02:41:41;8.57;;;4.22;;
71104;SDS011;58760;48.716;8.962;2024-03-17T02:44:08;7.82;;;4.00;;
71104;SDS011;58760;48.716;8.962;2024-03-17T02:46:35;11.25;;;4.53;;
71104;SDS011;58760;48.716;8.962;2024-03-17T02:49:03;8.55;;;4.53;;
71104;SDS011;58760;48.716;8.962;2024-03-17T02:51:31;9.43;;;4.70;;
71104;SDS011;58760;48.716;8.962;2024-03-17T02:53:58;9.90;;;4.57;;
71104;SDS011;58760;48.716;8.962;2024-03-17T02:56:30;9.40;;;5.15;;
71104;SDS011;58760;48.716;8.962;2024-03-17T02:59:03;7.65;;;4.05;;
71104;SDS011;58760;48.716;8.962;2024-03-17T03:01:29;8.80;;;4.65;;
71104;SDS011;58760;48.716;8.962;2024-03-17T03:03:55;8.82;;;4.53;;
71104;SDS011;58760;48.716;8.962;2024-03-17T03:06:32;8.82;;;4.88;;
71104;SDS011;58760;48.716;8.962;2024-03-17T03:09:02;8.23;;;4.15;;
71104;SDS011;58760;48.716;8.962;2024-03-17T03:11:31;8.68;;;4.57;;
71104;SDS011;58760;48.716;8.962;2024-03-17T03:14:00;7.68;;;4.35;;
71104;SDS011;58760;48.716;8.962;2024-03-17T03:16:30;8.52;;;4.68;;
71104;SDS011;58760;48.716;8.962;2024-03-17T03:18:59;8.85;;;4.65;;
71104;SDS011;58760;48.716;8.962;2024-03-17T03:21:27;8.70;;;4.75;;
71104;SDS011;58760;48.716;8.962;2024-03-17T03:23:56;9.48;;;4.60;;
71104;SDS011;58760;48.716;8.962;2024-03-17T03:26:21;9.98;;;4.22;;
71104;SDS011;58760;48.716;8.962;2024-03-17T03:28:50;8.77;;;4.57;;
71104;SDS011;58760;48.716;8.962;2024-03-17T03:31:16;9.23;;;4.80;;
71104;SDS011;58760;48.716;8.962;2024-03-17T03:36:10;8.05;;;3.72;;
71104;SDS011;58760;48.716;8.962;2024-03-17T03:38:37;8.00;;;3.90;;
71104;SDS011;58760;48.716;8.962;2024-03-17T03:41:09;9.02;;;4.45;;
71104;SDS011;58760;48.716;8.962;2024-03-17T03:43:36;8.70;;;4.28;;
71104;SDS011;58760;48.716;8.962;2024-03-17T03:46:03;8.35;;;4.35;;
71104;SDS011;58760;48.716;8.962;2024-03-17T03:48:29;9.23;;;4.90;;
71104;SDS011;58760;48.716;8.962;2024-03-17T03:50:57;8.07;;;4.13;;
71104;SDS011;58760;48.716;8.962;2024-03-17T03:53:24;7.88;;;4.22;;
71104;SDS011;58760;48.716;8.962;2024-03-17T03:55:51;8.13;;;4.50;;
71104;SDS011;58760;48.716;8.962;2024-03-17T03:58:16;9.52;;;4.05;;
71104;SDS011;58760;48.716;8.962;2024-03-17T04:00:42;11.35;;;4.60;;
71104;SDS011;58760;48.716;8.962;2024-03-17T04:03:08;7.55;;;4.03;;
71104;SDS011;58760;48.716;8.962;2024-03-17T04:05:36;7.50;;;3.97;;
71104;SDS011;58760;48.716;8.962;2024-03-17T04:08:02;8.00;;;4.30;;
71104;SDS011;58760;48.716;8.962;2024-03-17T04:10:30;7.07;;;4.03;;
71104;SDS011;58760;48.716;8.962;2024-03-17T04:12:55;10.93;;;3.88;;
71104;SDS011;58760;48.716;8.962;2024-03-17T04:15:24;9.05;;;4.65;;
71104;SDS011;58760;48.716;8.962;2024-03-17T04:17:50;7.60;;;4.10;;
71104;SDS011;58760;48.716;8.962;2024-03-17T04:20:18;7.60;;;4.20;;
71104;SDS011;58760;48.716;8.962;2024-03-17T04:22:46;7.43;;;4.03;;
71104;SDS011;58760;48.716;8.962;2024-03-17T04:25:13;8.18;;;3.50;;
71104;SDS011;58760;48.716;8.962;2024-03-17T04:27:39;8.15;;;3.78;;
71104;SDS011;58760;48.716;8.962;2024-03-17T04:30:06;11.77;;;3.72;;
71104;SDS011;58760;48.716;8.962;2024-03-17T04:32:32;9.73;;;3.80;;
71104;SDS011;58760;48.716;8.962;2024-03-17T04:34:59;7.00;;;3.53;;
71104;SDS011;58760;48.716;8.962;2024-03-17T04:37:25;10.23;;;3.65;;
71104;SDS011;58760;48.716;8.962;2024-03-17T04:39:51;7.90;;;3.83;;
71104;SDS011;58760;48.716;8.962;2024-03-17T04:42:27;7.45;;;3.67;;
71104;SDS011;58760;48.716;8.962;2024-03-17T04:44:54;8.65;;;3.80;;
71104;SDS011;58760;48.716;8.962;2024-03-17T04:47:19;8.57;;;3.40;;
71104;SDS011;58760;48.716;8.962;2024-03-17T04:49:46;11.00;;;3.95;;
71104;SDS011;58760;48.716;8.962;2024-03-17T04:52:12;6.97;;;3.58;;
71104;SDS011;58760;48.716;8.962;2024-03-17T04:54:40;6.80;;;3.63;;
71104;SDS011;58760;48.716;8.962;2024-03-17T04:57:08;5.97;;;3.00;;
71104;SDS011;58760;48.716;8.962;2024-03-17T04:59:35;8.00;;;3.40;;
71104;SDS011;58760;48.716;8.962;2024-03-17T05:02:01;7.72;;;3.92;;
71104;SDS011;58760;48.716;8.962;2024-03-17T05:04:27;8.85;;;3.97;;
71104;SDS011;58760;48.716;8.962;2024-03-17T05:06:53;7.45;;;3.22;;
71104;SDS011;58760;48.716;8.962;2024-03-17T05:09:20;6.95;;;3.40;;
71104;SDS011;58760;48.716;8.962;2024-03-17T05:11:47;8.48;;;3.72;;
71104;SDS011;58760;48.716;8.962;2024-03-17T05:14:13;7.07;;;3.60;;
71104;SDS011;58760;48.716;8.962;2024-03-17T05:16:40;6.55;;;3.30;;
71104;SDS011;58760;48.716;8.962;2024-03-17T05:19:06;7.07;;;3.63;;
71104;SDS011;58760;48.716;8.962;2024-03-17T05:21:35;8.70;;;3.50;;
71104;SDS011;58760;48.716;8.962;2024-03-17T05:24:02;7.53;;;3.40;;
71104;SDS011;58760;48.716;8.962;2024-03-17T05:26:29;5.90;;;3.25;;
71104;SDS011;58760;48.716;8.962;2024-03-17T05:28:57;7.75;;;3.60;;
71104;SDS011;58760;48.716;8.962;2024-03-17T05:31:23;8.50;;;3.20;;
71104;SDS011;58760;48.716;8.962;2024-03-17T05:33:49;8.82;;;3.85;;
71104;SDS011;58760;48.716;8.962;2024-03-17T05:36:15;6.13;;;3.17;;
71104;SDS011;58760;48.716;8.962;2024-03-17T05:38:41;6.97;;;3.38;;
71104;SDS011;58760;48.716;8.962;2024-03-17T05:41:07;6.65;;;3.40;;
71104;SDS011;58760;48.716;8.962;2024-03-17T05:43:37;7.60;;;3.58;;
71104;SDS011;58760;48.716;8.962;2024-03-17T05:46:05;10.68;;;4.75;;
71104;SDS011;58760;48.716;8.962;2024-03-17T05:48:32;10.18;;;5.03;;
71104;SDS011;58760;48.716;8.962;2024-03-17T05:53:29;10.27;;;4.50;;
71104;SDS011;58760;48.716;8.962;2024-03-17T05:56:00;8.50;;;4.10;;
71104;SDS011;58760;48.716;8.962;2024-03-17T05:58:29;10.60;;;4.47;;
71104;SDS011;58760;48.716;8.962;2024-03-17T06:00:55;9.95;;;4.30;;
71104;SDS011;58760;48.716;8.962;2024-03-17T06:03:23;10.32;;;4.00;;
71104;SDS011;58760;48.716;8.962;2024-03-17T06:05:51;9.15;;;3.92;;
71104;SDS011;58760;48.716;8.962;2024-03-17T06:08:16;9.70;;;4.32;;
71104;SDS011;58760;48.716;8.962;2024-03-17T06:10:43;8.45;;;4.47;;
71104;SDS011;58760;48.716;8.962;2024-03-17T06:13:11;12.27;;;4.63;;
71104;SDS011;58760;48.716;8.962;2024-03-17T06:15:38;9.88;;;4.85;;
71104;SDS011;58760;48.716;8.962;2024-03-17T06:18:06;8.93;;;4.55;;
71104;SDS011;58760;48.716;8.962;2024-03-17T06:20:41;9.18;;;4.70;;
71104;SDS011;58760;48.716;8.962;2024-03-17T06:23:19;9.75;;;4.80;;
71104;SDS011;58760;48.716;8.962;2024-03-17T06:25:45;8.27;;;4.18;;
71104;SDS011;58760;48.716;8.962;2024-03-17T06:28:16;11.05;;;4.63;;
71104;SDS011;58760;48.716;8.962;2024-03-17T06:30:42;10.30;;;5.50;;
71104;SDS011;58760;48.716;8.962;2024-03-17T06:33:19;10.00;;;4.85;;
71104;SDS011;58760;48.716;8.962;2024-03-17T06:35:46;9.75;;;5.22;;
71104;SDS011;58760;48.716;8.962;2024-03-17T06:38:13;10.05;;;5.30;;
71104;SDS011;58760;48.716;8.962;2024-03-17T06:40:41;8.77;;;4.68;;
71104;SDS011;58760;48.716;8.962;2024-03-17T06:43:08;9.18;;;5.35;;
71104;SDS011;58760;48.716;8.962;2024-03-17T06:45:33;9.55;;;5.00;;
71104;SDS011;58760;48.716;8.962;2024-03-17T06:47:59;8.50;;;4.65;;
71104;SDS011;58760;48.716;8.962;2024-03-17T06:50:25;8.45;;;4.28;;
71104;SDS011;58760;48.716;8.962;2024-03-17T06:52:51;9.50;;;4.70;;
71104;SDS011;58760;48.716;8.962;2024-03-17T06:55:17;7.13;;;3.60;;
71104;SDS011;58760;48.716;8.962;2024-03-17T06:57:43;7.80;;;3.58;;
71104;SDS011;58760;48.716;8.962;2024-03-17T07:00:10;7.57;;;3.53;;
71104;SDS011;58760;48.716;8.962;2024-03-17T07:02:39;7.35;;;3.60;;
71104;SDS011;58760;48.716;8.962;2024-03-17T07:05:14;6.80;;;3.75;;
71104;SDS011;58760;48.716;8.962;2024-03-17T07:07:44;7.32;;;3.78;;
71104;SDS011;58760;48.716;8.962;2024-03-17T07:10:11;7.03;;;3.85;;
71104;SDS011;58760;48.716;8.962;2024-03-17T07:12:38;6.28;;;3.33;;
71104;SDS011;58760;48.716;8.962;2024-03-17T07:15:04;7.90;;;3.58;;
71104;SDS011;58760;48.716;8.962;2024-03-17T07:17:32;7.15;;;3.75;;
71104;SDS011;58760;48.716;8.962;2024-03-17T07:19:59;7.65;;;4.18;;
71104;SDS011;58760;48.716;8.962;2024-03-17T07:22:25;8.25;;;4.03;;
71104;SDS011;58760;48.716;8.962;2024-03-17T07:24:54;8.75;;;4.28;;
71104;SDS011;58760;48.716;8.962;2024-03-17T07:27:23;8.13;;;4.47;;
71104;SDS011;58760;48.716;8.962;2024-03-17T07:29:48;8.90;;;4.88;;
71104;SDS011;58760;48.716;8.962;2024-03-17T07:32:15;8.98;;;4.55;;
71104;SDS011;58760;48.716;8.962;2024-03-17T07:34:43;10.18;;;5.13;;
71104;SDS011;58760;48.716;8.962;2024-03-17T07:37:09;10.77;;;4.72;;
71104;SDS011;58760;48.716;8.962;2024-03-17T07:39:38;11.60;;;5.07;;
71104;SDS011;58760;48.716;8.962;2024-03-17T07:42:05;8.93;;;4.35;;
71104;SDS011;58760;48.716;8.962;2024-03-17T07:44:32;7.82;;;4.47;;
71104;SDS011;58760;48.716;8.962;2024-03-17T07:47:00;8.13;;;4.68;;
71104;SDS011;58760;48.716;8.962;2024-03-17T07:49:29;8.77;;;4.53;;
71104;SDS011;58760;48.716;8.962;2024-03-17T07:51:59;8.10;;;4.40;;
71104;SDS011;58760;48.716;8.962;2024-03-17T07:54:25;9.60;;;4.68;;
71104;SDS011;58760;48.716;8.962;2024-03-17T07:59:20;8.63;;;4.80;;
71104;SDS011;58760;48.716;8.962;2024-03-17T08:01:46;8.65;;;4.40;;
71104;SDS011;58760;48.716;8.962;2024-03-17T08:04:15;8.70;;;5.03;;
71104;SDS011;58760;48.716;8.962;2024-03-17T08:06:41;8.93;;;4.53;;
71104;SDS011;58760;48.716;8.962;2024-03-17T08:09:08;9.40;;;4.75;;
71104;SDS011;58760;48.716;8.962;2024-03-17T08:11:37;9.70;;;4.82;;
71104;SDS011;58760;48.716;8.962;2024-03-17T08:14:04;8.48;;;4.88;;
71104;SDS011;58760;48.716;8.962;2024-03-17T08:18:58;7.50;;;3.97;;
71104;SDS011;58760;48.716;8.962;2024-03-17T08:21:23;9.18;;;3.90;;
71104;SDS011;58760;48.716;8.962;2024-03-17T08:23:55;7.45;;;3.80;;
71104;SDS011;58760;48.716;8.962;2024-03-17T08:26:24;7.40;;;3.95;;
71104;SDS011;58760;48.716;8.962;2024-03-17T08:28:51;6.50;;;3.53;;
71104;SDS011;58760;48.716;8.962;2024-03-17T08:31:18;7.28;;;4.00;;
71104;SDS011;58760;48.716;8.962;2024-03-17T08:33:44;7.93;;;3.55;;
71104;SDS011;58760;48.716;8.962;2024-03-17T08:36:09;8.13;;;4.20;;
71104;SDS011;58760;48.716;8.962;2024-03-17T08:38:36;7.03;;;3.78;;
71104;SDS011;58760;48.716;8.962;2024-03-17T08:41:22;7.70;;;3.75;;
71104;SDS011;58760;48.716;8.962;2024-03-17T08:43:50;9.77;;;4.00;;
71104;SDS011;58760;48.716;8.962;2024-03-17T08:46:15;8.82;;;4.75;;
71104;SDS011;58760;48.716;8.962;2024-03-17T08:48:44;8.98;;;4.85;;
71104;SDS011;58760;48.716;8.962;2024-03-17T08:51:13;10.05;;;5.35;;
71104;SDS011;58760;48.716;8.962;2024-03-17T08:53:40;8.93;;;5.30;;
71104;SDS011;58760;48.716;8.962;2024-03-17T08:56:10;8.15;;;4.70;;
71104;SDS011;58760;48.716;8.962;2024-03-17T08:58:35;7.40;;;4.35;;
71104;SDS011;58760;48.716;8.962;2024-03-17T09:01:05;8.50;;;4.70;;
71104;SDS011;58760;48.716;8.962;2024-03-17T09:03:36;8.50;;;4.80;;
71104;SDS011;58760;48.716;8.962;2024-03-17T09:06:03;8.98;;;5.18;;
71104;SDS011;58760;48.716;8.962;2024-03-17T09:08:29;9.85;;;5.43;;
71104;SDS011;58760;48.716;8.962;2024-03-17T09:10:55;7.47;;;4.35;;
71104;SDS011;58760;48.716;8.962;2024-03-17T09:13:23;10.48;;;4.53;;
71104;SDS011;58760;48.716;8.962;2024-03-17T09:15:58;9.38;;;4.88;;
71104;SDS011;58760;48.716;8.962;2024-03-17T09:18:26;10.10;;;5.03;;
71104;SDS011;58760;48.716;8.962;2024-03-17T09:20:55;10.30;;;4.90;;
71104;SDS011;58760;48.716;8.962;2024-03-17T09:23:21;9.52;;;4.55;;
71104;SDS011;58760;48.716;8.962;2024-03-17T09:25:57;8.63;;;4.43;;
71104;SDS011;58760;48.716;8.962;2024-03-17T09:28:24;10.00;;;4.38;;
71104;SDS011;58760;48.716;8.962;2024-03-17T09:30:50;9.02;;;4.30;;
71104;SDS011;58760;48.716;8.962;2024-03-17T09:33:21;8.40;;;4.07;;
71104;SDS011;58760;48.716;8.962;2024-03-17T09:35:52;9.60;;;4.13;;
71104;SDS011;58760;48.716;8.962;2024-03-17T09:38:23;7.07;;;3.60;;
71104;SDS011;58760;48.716;8.962;2024-03-17T09:40:50;7.63;;;3.33;;
71104;SDS011;58760;48.716;8.962;2024-03-17T09:43:39;6.47;;;3.33;;
71104;SDS011;58760;48.716;8.962;2024-03-17T09:46:05;9.02;;;3.65;;
71104;SDS011;58760;48.716;8.962;2024-03-17T09:48:34;7.78;;;3.47;;
71104;SDS011;58760;48.716;8.962;2024-03-17T09:51:01;8.15;;;3.47;;
71104;SDS011;58760;48.716;8.962;2024-03-17T09:53:30;9.25;;;3.65;;
71104;SDS011;58760;48.716;8.962;2024-03-17T09:55:58;5.70;;;3.20;;
71104;SDS011;58760;48.716;8.962;2024-03-17T09:58:26;5.75;;;2.50;;
71104;SDS011;58760;48.716;8.962;2024-03-17T10:00:52;7.25;;;2.90;;
71104;SDS011;58760;48.716;8.962;2024-03-17T10:06:10;5.45;;;2.50;;
71104;SDS011;58760;48.716;8.962;2024-03-17T10:08:41;8.07;;;2.83;;
71104;SDS011;58760;48.716;8.962;2024-03-17T10:11:15;6.93;;;2.65;;
71104;SDS011;58760;48.716;8.962;2024-03-17T10:13:46;4.43;;;2.20;;
71104;SDS011;58760;48.716;8.962;2024-03-17T10:16:24;5.00;;;2.20;;
71104;SDS011;58760;48.716;8.962;2024-03-17T10:21:41;5.35;;;2.40;;
71104;SDS011;58760;48.716;8.962;2024-03-17T10:24:09;7.10;;;2.33;;
71104;SDS011;58760;48.716;8.962;2024-03-17T10:26:54;3.53;;;2.05;;
71104;SDS011;58760;48.716;8.962;2024-03-17T10:32:02;6.90;;;2.20;;
71104;SDS011;58760;48.716;8.962;2024-03-17T10:34:32;8.25;;;2.40;;
71104;SDS011;58760;48.716;8.962;2024-03-17T10:37:11;6.88;;;2.30;;
71104;SDS011;58760;48.716;8.962;2024-03-17T10:39:42;6.45;;;2.45;;
71104;SDS011;58760;48.716;8.962;2024-03-17T10:42:09;5.28;;;2.17;;
71104;SDS011;58760;48.716;8.962;2024-03-17T10:44:39;9.93;;;2.00;;
71104;SDS011;58760;48.716;8.962;2024-03-17T10:47:13;3.78;;;1.77;;
71104;SDS011;58760;48.716;8.962;2024-03-17T10:49:54;4.22;;;1.55;;
71104;SDS011;58760;48.716;8.962;2024-03-17T10:52:22;8.20;;;2.53;;
71104;SDS011;58760;48.716;8.962;2024-03-17T10:54:55;5.28;;;1.95;;
71104;SDS011;58760;48.716;8.962;2024-03-17T10:57:31;6.38;;;2.10;;
71104;SDS011;58760;48.716;8.962;2024-03-17T11:00:03;8.60;;;2.00;;
71104;SDS011;58760;48.716;8.962;2024-03-17T11:02:37;10.15;;;2.25;;
71104;SDS011;58760;48.716;8.962;2024-03-17T11:05:40;5.93;;;2.00;;
71104;SDS011;58760;48.716;8.962;2024-03-17T11:08:00;3.75;;;1.33;;
71104;SDS011;58760;48.716;8.962;2024-03-17T11:10:31;5.07;;;1.60;;
71104;SDS011;58760;48.716;8.962;2024-03-17T11:13:00;3.90;;;1.48;;
71104;SDS011;58760;48.716;8.962;2024-03-17T11:20:44;6.25;;;1.42;;
71104;SDS011;58760;48.716;8.962;2024-03-17T11:23:26;4.65;;;1.33;;
71104;SDS011;58760;48.716;8.962;2024-03-17T11:25:59;3.63;;;1.20;;
71104;SDS011;58760;48.716;8.962;2024-03-17T11:37:01;4.13;;;0.90;;
71104;SDS011;58760;48.716;8.962;2024-03-17T11:39:45;4.43;;;1.05;;
71104;SDS011;58760;48.716;8.962;2024-03-17T11:42:14;2.83;;;1.00;;
71104;SDS011;58760;48.716;8.962;2024-03-17T11:44:57;5.28;;;1.48;;
71104;SDS011;58760;48.716;8.962;2024-03-17T11:47:32;5.13;;;1.38;;
71104;SDS011;58760;48.716;8.962;2024-03-17T11:50:02;4.68;;;1.50;;
71104;SDS011;58760;48.716;8.962;2024-03-17T11:52:29;6.57;;;1.40;;
71104;SDS011;58760;48.716;8.962;2024-03-17T11:54:59;2.92;;;1.27;;
71104;SDS011;58760;48.716;8.962;2024-03-17T11:57:27;4.47;;;1.23;;
71104;SDS011;58760;48.716;8.962;2024-03-17T11:59:53;4.28;;;1.45;;
71104;SDS011;58760;48.716;8.962;2024-03-17T12:02:21;4.07;;;1.40;;
71104;SDS011;58760;48.716;8.962;2024-03-17T12:04:47;3.80;;;1.40;;
71104;SDS011;58760;48.716;8.962;2024-03-17T12:07:19;4.15;;;1.30;;
71104;SDS011;58760;48.716;8.962;2024-03-17T12:09:50;3.78;;;1.40;;
71104;SDS011;58760;48.716;8.962;2024-03-17T12:12:20;4.82;;;1.40;;
71104;SDS011;58760;48.716;8.962;2024-03-17T12:14:52;4.13;;;1.13;;
71104;SDS011;58760;48.716;8.962;2024-03-17T12:17:23;3.40;;;1.00;;
71104;SDS011;58760;48.716;8.962;2024-03-17T12:19:50;2.33;;;0.98;;
71104;SDS011;58760;48.716;8.962;2024-03-17T12:22:18;3.13;;;1.02;;
71104;SDS011;58760;48.716;8.962;2024-03-17T12:24:49;5.18;;;1.00;;
71104;SDS011;58760;48.716;8.962;2024-03-17T12:27:24;6.47;;;1.10;;
71104;SDS011;58760;48.716;8.962;2024-03-17T12:29:51;3.75;;;1.00;;
71104;SDS011;58760;48.716;8.962;2024-03-17T12:32:19;3.58;;;1.30;;
71104;SDS011;58760;48.716;8.962;2024-03-17T12:34:51;4.43;;;0.93;;
71104;SDS011;58760;48.716;8.962;2024-03-17T12:39:44;5.22;;;1.27;;
71104;SDS011;58760;48.716;8.962;2024-03-17T12:42:15;3.20;;;1.10;;
71104;SDS011;58760;48.716;8.962;2024-03-17T12:47:23;3.92;;;1.02;;
71104;SDS011;58760;48.716;8.962;2024-03-17T12:49:53;6.65;;;1.80;;
71104;SDS011;58760;48.716;8.962;2024-03-17T12:52:22;3.20;;;1.20;;
71104;SDS011;58760;48.716;8.962;2024-03-17T12:57:46;2.15;;;1.10;;
71104;SDS011;58760;48.716;8.962;2024-03-17T13:00:32;3.88;;;1.15;;
71104;SDS011;58760;48.716;8.962;2024-03-17T13:03:04;5.38;;;1.50;;
71104;SDS011;58760;48.716;8.962;2024-03-17T13:05:35;4.45;;;1.27;;
71104;SDS011;58760;48.716;8.962;2024-03-17T13:08:04;4.75;;;1.00;;
71104;SDS011;58760;48.716;8.962;2024-03-17T13:10:30;4.20;;;1.13;;
71104;SDS011;58760;48.716;8.962;2024-03-17T13:13:01;2.92;;;0.88;;
71104;SDS011;58760;48.716;8.962;2024-03-17T13:15:30;4.07;;;1.10;;
71104;SDS011;58760;48.716;8.962;2024-03-17T13:18:02;4.30;;;1.15;;
71104;SDS011;58760;48.716;8.962;2024-03-17T13:20:31;3.38;;;1.13;;
71104;SDS011;58760;48.716;8.962;2024-03-17T13:23:00;4.00;;;1.13;;
71104;SDS011;58760;48.716;8.962;2024-03-17T13:25:27;4.00;;;1.15;;
71104;SDS011;58760;48.716;8.962;2024-03-17T13:28:03;2.90;;;0.95;;
71104;SDS011;58760;48.716;8.962;2024-03-17T13:30:50;4.20;;;1.00;;
71104;SDS011;58760;48.716;8.962;2024-03-17T13:33:15;2.55;;;1.08;;
71104;SDS011;58760;48.716;8.962;2024-03-17T13:35:43;2.42;;;0.98;;
71104;SDS011;58760;48.716;8.962;2024-03-17T13:38:09;5.15;;;1.23;;
71104;SDS011;58760;48.716;8.962;2024-03-17T13:40:37;3.65;;;0.93;;
71104;SDS011;58760;48.716;8.962;2024-03-17T13:43:06;4.25;;;1.15;;
71104;SDS011;58760;48.716;8.962;2024-03-17T13:45:41;4.82;;;1.15;;
71104;SDS011;58760;48.716;8.962;2024-03-17T13:48:09;5.22;;;1.30;;
71104;SDS011;58760;48.716;8.962;2024-03-17T13:50:39;3.92;;;1.08;;
71104;SDS011;58760;48.716;8.962;2024-03-17T13:53:07;4.07;;;1.23;;
71104;SDS011;58760;48.716;8.962;2024-03-17T13:55:33;5.22;;;1.20;;
71104;SDS011;58760;48.716;8.962;2024-03-17T13:57:58;3.65;;;0.93;;
71104;SDS011;58760;48.716;8.962;2024-03-17T14:00:27;3.25;;;1.10;;
71104;SDS011;58760;48.716;8.962;2024-03-17T14:02:57;3.38;;;0.98;;
71104;SDS011;58760;48.716;8.962;2024-03-17T14:05:23;3.35;;;1.00;;
71104;SDS011;58760;48.716;8.962;2024-03-17T14:07:51;4.00;;;1.33;;
71104;SDS011;58760;48.716;8.962;2024-03-17T14:10:18;3.70;;;1.33;;
71104;SDS011;58760;48.716;8.962;2024-03-17T14:12:45;3.00;;;1.05;;
71104;SDS011;58760;48.716;8.962;2024-03-17T14:15:12;2.58;;;0.90;;
71104;SDS011;58760;48.716;8.962;2024-03-17T14:17:51;3.45;;;1.05;;
71104;SDS011;58760;48.716;8.962;2024-03-17T14:20:17;3.85;;;1.00;;
71104;SDS011;58760;48.716;8.962;2024-03-17T14:22:47;2.97;;;1.05;;
71104;SDS011;58760;48.716;8.962;2024-03-17T14:25:19;6.43;;;1.38;;
71104;SDS011;58760;48.716;8.962;2024-03-17T14:27:47;4.75;;;1.85;;
71104;SDS011;58760;48.716;8.962;2024-03-17T14:30:15;3.92;;;1.10;;
71104;SDS011;58760;48.716;8.962;2024-03-17T14:32:42;3.88;;;1.15;;
71104;SDS011;58760;48.716;8.962;2024-03-17T14:35:18;1.35;;;0.70;;
71104;SDS011;58760;48.716;8.962;2024-03-17T14:41:30;3.80;;;1.55;;
71104;SDS011;58760;48.716;8.962;2024-03-17T14:43:57;5.32;;;1.05;;
71104;SDS011;58760;48.716;8.962;2024-03-17T14:46:25;2.60;;;1.15;;
71104;SDS011;58760;48.716;8.962;2024-03-17T14:48:53;3.88;;;1.13;;
71104;SDS011;58760;48.716;8.962;2024-03-17T14:51:20;3.63;;;1.10;;
71104;SDS011;58760;48.716;8.962;2024-03-17T14:53:49;5.25;;;1.42;;
71104;SDS011;58760;48.716;8.962;2024-03-17T14:56:17;3.90;;;1.17;;
71104;SDS011;58760;48.716;8.962;2024-03-17T14:58:43;5.47;;;1.50;;
71104;SDS011;58760;48.716;8.962;2024-03-17T15:01:13;4.00;;;1.30;;
71104;SDS011;58760;48.716;8.962;2024-03-17T15:03:39;6.43;;;2.50;;
71104;SDS011;58760;48.716;8.962;2024-03-17T15:06:13;5.30;;;1.80;;
71104;SDS011;58760;48.716;8.962;2024-03-17T15:08:41;5.00;;;1.00;;
71104;SDS011;58760;48.716;8.962;2024-03-17T15:11:07;4.40;;;1.83;;
71104;SDS011;58760;48.716;8.962;2024-03-17T15:13:35;6.95;;;1.40;;
71104;SDS011;58760;48.716;8.962;2024-03-17T15:16:03;4.00;;;1.70;;
71104;SDS011;58760;48.716;8.962;2024-03-17T15:18:30;3.83;;;1.10;;
71104;SDS011;58760;48.716;8.962;2024-03-17T15:20:59;3.80;;;0.80;;
71104;SDS011;58760;48.716;8.962;2024-03-17T15:23:26;7.22;;;2.60;;
71104;SDS011;58760;48.716;8.962;2024-03-17T15:26:00;3.80;;;1.70;;
71104;SDS011;58760;48.716;8.962;2024-03-17T15:28:32;6.53;;;2.50;;
71104;SDS011;58760;48.716;8.962;2024-03-17T15:33:26;4.40;;;1.70;;
71104;SDS011;58760;48.716;8.962;2024-03-17T15:38:17;4.70;;;1.60;;
71104;SDS011;58760;48.716;8.962;2024-03-17T15:40:44;3.53;;;1.77;;
71104;SDS011;58760;48.716;8.962;2024-03-17T15:43:10;4.82;;;1.83;;
71104;SDS011;58760;48.716;8.962;2024-03-17T15:45:37;7.55;;;2.13;;
71104;SDS011;58760;48.716;8.962;2024-03-17T15:48:06;5.35;;;2.20;;
71104;SDS011;58760;48.716;8.962;2024-03-17T15:50:33;5.50;;;2.13;;
71104;SDS011;58760;48.716;8.962;2024-03-17T15:53:00;6.32;;;2.33;;